NSZ3195 ESSA-EKCH
Flight info
| Callsign | NSZ3195 |
|---|---|
| Flight time | 1h 1m |
| Altitude | 34000 |
| Route | PETEV N872 ELPAX DCT TOKSI N872 ERNOV |
| Aircraft | B38M/M-SDFGHIRWXYZ/LB1 |
Departure
| Time | 2026-04-25 16:03 |
|---|---|
| Airport | Stockholm-Arlanda Airport (ESSA) |
Arrival
| Time | 2026-04-25 17:05 |
|---|---|
| Airport | Copenhagen Kastrup Airport (EKCH) |
| Time | Latitude | Longitude | Altitude | Speed | Heading |
|---|---|---|---|---|---|
| 2026-04-25 15:37 | 59.65284 | 17.93177 | 112 ft | 0 kts | 251° |
| 2026-04-25 15:52 | 59.65288 | 17.93200 | 111 ft | 4 kts | 252° |
| 2026-04-25 15:53 | 59.65295 | 17.93251 | 113 ft | 4 kts | 257° |
| 2026-04-25 15:53 | 59.65299 | 17.93303 | 114 ft | 4 kts | 270° |
| 2026-04-25 15:53 | 59.65295 | 17.93348 | 112 ft | 1 kts | 296° |
| 2026-04-25 15:53 | 59.65295 | 17.93349 | 112 ft | 2 kts | 296° |
| 2026-04-25 15:58 | 59.65298 | 17.93336 | 112 ft | 3 kts | 298° |
| 2026-04-25 15:58 | 59.65333 | 17.93294 | 114 ft | 10 kts | 339° |
| 2026-04-25 15:58 | 59.65415 | 17.93254 | 114 ft | 14 kts | 346° |
| 2026-04-25 15:58 | 59.65503 | 17.93152 | 114 ft | 15 kts | 299° |
| 2026-04-25 15:59 | 59.65484 | 17.92950 | 113 ft | 17 kts | 249° |
| 2026-04-25 15:59 | 59.65434 | 17.92716 | 112 ft | 21 kts | 239° |
| 2026-04-25 15:59 | 59.65323 | 17.92487 | 113 ft | 27 kts | 214° |
| 2026-04-25 15:59 | 59.65141 | 17.92361 | 114 ft | 28 kts | 191° |
| 2026-04-25 16:00 | 59.64942 | 17.92289 | 111 ft | 30 kts | 190° |
| 2026-04-25 16:00 | 59.64813 | 17.92242 | 114 ft | 28 kts | 190° |
| 2026-04-25 16:00 | 59.64555 | 17.92150 | 115 ft | 27 kts | 191° |
| 2026-04-25 16:00 | 59.64442 | 17.92106 | 115 ft | 11 kts | 196° |
| 2026-04-25 16:01 | 59.64411 | 17.91963 | 115 ft | 13 kts | 253° |
| 2026-04-25 16:01 | 59.64405 | 17.91887 | 114 ft | 0 kts | 277° |
| 2026-04-25 16:01 | 59.64408 | 17.91849 | 113 ft | 7 kts | 279° |
| 2026-04-25 16:02 | 59.64424 | 17.91688 | 109 ft | 16 kts | 281° |
| 2026-04-25 16:02 | 59.64480 | 17.91596 | 111 ft | 0 kts | 11° |
| 2026-04-25 16:03 | 59.64594 | 17.91638 | 113 ft | 50 kts | 10° |
| 2026-04-25 16:03 | 59.65199 | 17.91856 | 108 ft | 123 kts | 11° |
| 2026-04-25 16:03 | 59.66212 | 17.92226 | 260 ft | 165 kts | 9° |
| 2026-04-25 16:03 | 59.67351 | 17.92653 | 1168 ft | 164 kts | 9° |
| 2026-04-25 16:04 | 59.68436 | 17.93041 | 2228 ft | 161 kts | 2° |
| 2026-04-25 16:04 | 59.69574 | 17.92251 | 2541 ft | 196 kts | 322° |
| 2026-04-25 16:04 | 59.70233 | 17.89966 | 3669 ft | 195 kts | 288° |
| 2026-04-25 16:04 | 59.70088 | 17.87181 | 4460 ft | 218 kts | 255° |
| 2026-04-25 16:05 | 59.69598 | 17.84320 | 5327 ft | 220 kts | 263° |
| 2026-04-25 16:05 | 59.69221 | 17.81354 | 6267 ft | 222 kts | 263° |
| 2026-04-25 16:05 | 59.68365 | 17.75275 | 7752 ft | 244 kts | 260° |
| 2026-04-25 16:06 | 59.67847 | 17.71956 | 8383 ft | 260 kts | 259° |
| 2026-04-25 16:06 | 59.67251 | 17.68466 | 9073 ft | 277 kts | 250° |
| 2026-04-25 16:06 | 59.66010 | 17.65413 | 9966 ft | 294 kts | 224° |
| 2026-04-25 16:06 | 59.64151 | 17.63466 | 10488 ft | 320 kts | 202° |
| 2026-04-25 16:07 | 59.61949 | 17.62184 | 10960 ft | 337 kts | 201° |
| 2026-04-25 16:07 | 59.60443 | 17.61283 | 11340 ft | 345 kts | 201° |
| 2026-04-25 16:07 | 59.57311 | 17.59387 | 12305 ft | 354 kts | 201° |
| 2026-04-25 16:07 | 59.54974 | 17.57964 | 13164 ft | 355 kts | 201° |
| 2026-04-25 16:08 | 59.52654 | 17.56310 | 13929 ft | 352 kts | 213° |
| 2026-04-25 16:08 | 59.50725 | 17.53432 | 14605 ft | 348 kts | 226° |
| 2026-04-25 16:08 | 59.48895 | 17.50266 | 15245 ft | 353 kts | 226° |
| 2026-04-25 16:08 | 59.47051 | 17.47059 | 15936 ft | 355 kts | 226° |
| 2026-04-25 16:09 | 59.45194 | 17.43811 | 16589 ft | 358 kts | 226° |
| 2026-04-25 16:09 | 59.43355 | 17.40588 | 17239 ft | 360 kts | 226° |
| 2026-04-25 16:09 | 59.41473 | 17.37290 | 17861 ft | 364 kts | 226° |
| 2026-04-25 16:09 | 59.39579 | 17.33972 | 18408 ft | 366 kts | 226° |
| 2026-04-25 16:10 | 59.37664 | 17.30624 | 18934 ft | 369 kts | 226° |
| 2026-04-25 16:10 | 59.35735 | 17.27254 | 19438 ft | 372 kts | 226° |
| 2026-04-25 16:10 | 59.33814 | 17.23906 | 19940 ft | 375 kts | 226° |
| 2026-04-25 16:10 | 59.31858 | 17.20502 | 20410 ft | 378 kts | 226° |
| 2026-04-25 16:11 | 59.29891 | 17.17082 | 20981 ft | 378 kts | 226° |
| 2026-04-25 16:11 | 59.27915 | 17.13654 | 21461 ft | 381 kts | 226° |
| 2026-04-25 16:11 | 59.25918 | 17.10196 | 21941 ft | 383 kts | 226° |
| 2026-04-25 16:11 | 59.23914 | 17.06729 | 22427 ft | 386 kts | 226° |
| 2026-04-25 16:12 | 59.21893 | 17.03239 | 22896 ft | 389 kts | 226° |
| 2026-04-25 16:12 | 59.19845 | 16.99836 | 23340 ft | 392 kts | 225° |
| 2026-04-25 16:12 | 59.17735 | 16.96414 | 23710 ft | 395 kts | 225° |
| 2026-04-25 16:12 | 59.16332 | 16.94132 | 23948 ft | 397 kts | 225° |
| 2026-04-25 16:13 | 59.13477 | 16.89488 | 24429 ft | 401 kts | 225° |
| 2026-04-25 16:13 | 59.11326 | 16.85995 | 24786 ft | 403 kts | 225° |
| 2026-04-25 16:13 | 59.09162 | 16.82485 | 25146 ft | 406 kts | 225° |
| 2026-04-25 16:13 | 59.06972 | 16.78936 | 25426 ft | 411 kts | 225° |
| 2026-04-25 16:14 | 59.04801 | 16.75427 | 25839 ft | 412 kts | 225° |
| 2026-04-25 16:14 | 59.02581 | 16.71845 | 26164 ft | 416 kts | 225° |
| 2026-04-25 16:14 | 59.00346 | 16.68244 | 26524 ft | 419 kts | 225° |
| 2026-04-25 16:14 | 58.98092 | 16.64620 | 26859 ft | 422 kts | 225° |
| 2026-04-25 16:15 | 58.95823 | 16.60978 | 27205 ft | 425 kts | 225° |
| 2026-04-25 16:15 | 58.93540 | 16.57318 | 27545 ft | 428 kts | 225° |
| 2026-04-25 16:15 | 58.91233 | 16.53627 | 27871 ft | 431 kts | 225° |
| 2026-04-25 16:15 | 58.88910 | 16.49926 | 28189 ft | 434 kts | 224° |
| 2026-04-25 16:16 | 58.86565 | 16.46197 | 28529 ft | 437 kts | 224° |
| 2026-04-25 16:16 | 58.84202 | 16.42446 | 28818 ft | 440 kts | 224° |
| 2026-04-25 16:16 | 58.81863 | 16.38740 | 29187 ft | 440 kts | 225° |
| 2026-04-25 16:16 | 58.79479 | 16.34967 | 29532 ft | 443 kts | 224° |
| 2026-04-25 16:17 | 58.77086 | 16.31189 | 29811 ft | 446 kts | 224° |
| 2026-04-25 16:17 | 58.74684 | 16.27403 | 30043 ft | 448 kts | 224° |
| 2026-04-25 16:17 | 58.72257 | 16.23586 | 30282 ft | 451 kts | 224° |
| 2026-04-25 16:17 | 58.69788 | 16.19709 | 30518 ft | 453 kts | 224° |
| 2026-04-25 16:18 | 58.67396 | 16.15961 | 30745 ft | 455 kts | 224° |
| 2026-04-25 16:18 | 58.62465 | 16.08256 | 31211 ft | 460 kts | 224° |
| 2026-04-25 16:18 | 58.59977 | 16.04378 | 31444 ft | 462 kts | 224° |
| 2026-04-25 16:19 | 58.57479 | 16.00494 | 31721 ft | 461 kts | 224° |
| 2026-04-25 16:19 | 58.55008 | 15.96658 | 32034 ft | 462 kts | 224° |
| 2026-04-25 16:19 | 58.52520 | 15.92802 | 32293 ft | 462 kts | 224° |
| 2026-04-25 16:20 | 58.47510 | 15.85061 | 32870 ft | 463 kts | 224° |
| 2026-04-25 16:20 | 58.44996 | 15.81189 | 33146 ft | 464 kts | 225° |
| 2026-04-25 16:20 | 58.39983 | 15.73483 | 33666 ft | 465 kts | 224° |
| 2026-04-25 16:21 | 58.37459 | 15.69617 | 33679 ft | 466 kts | 225° |
| 2026-04-25 16:21 | 58.32397 | 15.61881 | 33678 ft | 466 kts | 225° |
| 2026-04-25 16:22 | 58.27326 | 15.54160 | 33676 ft | 465 kts | 225° |
| 2026-04-25 16:22 | 58.22254 | 15.46467 | 33686 ft | 465 kts | 225° |
| 2026-04-25 16:23 | 58.17208 | 15.38843 | 33684 ft | 466 kts | 225° |
| 2026-04-25 16:23 | 58.12141 | 15.31214 | 33687 ft | 466 kts | 225° |
| 2026-04-25 16:24 | 58.07101 | 15.23657 | 33694 ft | 465 kts | 225° |
| 2026-04-25 16:24 | 58.02016 | 15.16064 | 33688 ft | 465 kts | 225° |
| 2026-04-25 16:25 | 57.96940 | 15.08510 | 33686 ft | 465 kts | 225° |
| 2026-04-25 16:25 | 57.91869 | 15.00994 | 33713 ft | 465 kts | 224° |
| 2026-04-25 16:26 | 57.86807 | 14.93517 | 33705 ft | 465 kts | 224° |
| 2026-04-25 16:26 | 57.81707 | 14.86012 | 33705 ft | 465 kts | 224° |
| 2026-04-25 16:27 | 57.76610 | 14.78539 | 33708 ft | 465 kts | 224° |
| 2026-04-25 16:27 | 57.71525 | 14.71112 | 33700 ft | 465 kts | 224° |
| 2026-04-25 16:28 | 57.66411 | 14.63669 | 33692 ft | 465 kts | 225° |
| 2026-04-25 16:28 | 57.61293 | 14.56247 | 33665 ft | 470 kts | 225° |
| 2026-04-25 16:29 | 57.56118 | 14.48772 | 33715 ft | 470 kts | 225° |
| 2026-04-25 16:29 | 57.50973 | 14.41367 | 33724 ft | 470 kts | 225° |
| 2026-04-25 16:30 | 57.45785 | 14.33926 | 33731 ft | 470 kts | 225° |
| 2026-04-25 16:30 | 57.43202 | 14.30232 | 33603 ft | 466 kts | 225° |
| 2026-04-25 16:30 | 57.40645 | 14.26581 | 33351 ft | 463 kts | 225° |
| 2026-04-25 16:30 | 57.38094 | 14.22945 | 33028 ft | 459 kts | 225° |
| 2026-04-25 16:31 | 57.35602 | 14.19401 | 32779 ft | 456 kts | 225° |
| 2026-04-25 16:31 | 57.33087 | 14.15830 | 32533 ft | 454 kts | 225° |
| 2026-04-25 16:31 | 57.30585 | 14.12283 | 32265 ft | 451 kts | 225° |
| 2026-04-25 16:31 | 57.28091 | 14.08754 | 32008 ft | 449 kts | 225° |
| 2026-04-25 16:32 | 57.25621 | 14.05267 | 31691 ft | 442 kts | 225° |
| 2026-04-25 16:32 | 57.23212 | 14.01867 | 31125 ft | 441 kts | 225° |
| 2026-04-25 16:32 | 57.20760 | 13.98413 | 30425 ft | 443 kts | 225° |
| 2026-04-25 16:32 | 57.18308 | 13.94964 | 29902 ft | 441 kts | 226° |
| 2026-04-25 16:33 | 57.15887 | 13.91569 | 29334 ft | 438 kts | 225° |
| 2026-04-25 16:33 | 57.13467 | 13.88186 | 28712 ft | 433 kts | 226° |
| 2026-04-25 16:33 | 57.11112 | 13.84898 | 28769 ft | 418 kts | 226° |
| 2026-04-25 16:34 | 57.06497 | 13.78457 | 28753 ft | 417 kts | 226° |
| 2026-04-25 16:34 | 57.01872 | 13.72027 | 28757 ft | 417 kts | 226° |
| 2026-04-25 16:35 | 56.97233 | 13.65598 | 28755 ft | 417 kts | 226° |
| 2026-04-25 16:35 | 56.92614 | 13.59216 | 28740 ft | 421 kts | 227° |
| 2026-04-25 16:36 | 56.87921 | 13.52755 | 28747 ft | 422 kts | 227° |
| 2026-04-25 16:36 | 56.83241 | 13.46332 | 27150 ft | 418 kts | 227° |
| 2026-04-25 16:36 | 56.80932 | 13.43171 | 26311 ft | 414 kts | 227° |
| 2026-04-25 16:37 | 56.78631 | 13.40026 | 25497 ft | 409 kts | 227° |
| 2026-04-25 16:37 | 56.76400 | 13.36979 | 24727 ft | 405 kts | 227° |
| 2026-04-25 16:37 | 56.74153 | 13.33914 | 23980 ft | 400 kts | 227° |
| 2026-04-25 16:37 | 56.71937 | 13.30891 | 23242 ft | 395 kts | 227° |
| 2026-04-25 16:38 | 56.69770 | 13.27941 | 22379 ft | 389 kts | 226° |
| 2026-04-25 16:38 | 56.67613 | 13.25005 | 21545 ft | 384 kts | 226° |
| 2026-04-25 16:38 | 56.65478 | 13.22102 | 20691 ft | 379 kts | 226° |
| 2026-04-25 16:38 | 56.63370 | 13.19247 | 19940 ft | 375 kts | 226° |
| 2026-04-25 16:39 | 56.61298 | 13.16450 | 19310 ft | 368 kts | 225° |
| 2026-04-25 16:39 | 56.59289 | 13.13739 | 18738 ft | 360 kts | 225° |
| 2026-04-25 16:39 | 56.57279 | 13.11032 | 18272 ft | 351 kts | 225° |
| 2026-04-25 16:39 | 56.55351 | 13.08435 | 17615 ft | 346 kts | 225° |
| 2026-04-25 16:40 | 56.53739 | 13.05450 | 17205 ft | 317 kts | 246° |
| 2026-04-25 16:40 | 56.52934 | 13.01914 | 16895 ft | 297 kts | 264° |
| 2026-04-25 16:40 | 56.52510 | 12.98282 | 16625 ft | 293 kts | 265° |
| 2026-04-25 16:40 | 56.52111 | 12.94655 | 16394 ft | 293 kts | 265° |
| 2026-04-25 16:41 | 56.51720 | 12.91072 | 16181 ft | 293 kts | 265° |
| 2026-04-25 16:41 | 56.51587 | 12.89849 | 16124 ft | 293 kts | 265° |
| 2026-04-25 16:41 | 56.50543 | 12.80212 | 15583 ft | 292 kts | 266° |
| 2026-04-25 16:42 | 56.50126 | 12.76632 | 15443 ft | 289 kts | 265° |
| 2026-04-25 16:42 | 56.49439 | 12.73222 | 15248 ft | 301 kts | 246° |
| 2026-04-25 16:42 | 56.47927 | 12.70457 | 14998 ft | 320 kts | 221° |
| 2026-04-25 16:42 | 56.45849 | 12.68784 | 14709 ft | 335 kts | 203° |
| 2026-04-25 16:43 | 56.43551 | 12.67882 | 14425 ft | 338 kts | 201° |
| 2026-04-25 16:43 | 56.41250 | 12.66939 | 14076 ft | 338 kts | 200° |
| 2026-04-25 16:43 | 56.38950 | 12.66015 | 13736 ft | 337 kts | 199° |
| 2026-04-25 16:43 | 56.36683 | 12.65118 | 13384 ft | 336 kts | 199° |
| 2026-04-25 16:44 | 56.34396 | 12.64217 | 13025 ft | 335 kts | 199° |
| 2026-04-25 16:44 | 56.32122 | 12.63325 | 12688 ft | 334 kts | 199° |
| 2026-04-25 16:44 | 56.29850 | 12.62437 | 12358 ft | 332 kts | 199° |
| 2026-04-25 16:44 | 56.27617 | 12.61565 | 12032 ft | 331 kts | 199° |
| 2026-04-25 16:45 | 56.25372 | 12.60689 | 11710 ft | 329 kts | 199° |
| 2026-04-25 16:45 | 56.23134 | 12.59817 | 11393 ft | 328 kts | 199° |
| 2026-04-25 16:45 | 56.21667 | 12.59246 | 11175 ft | 327 kts | 199° |
| 2026-04-25 16:45 | 56.18721 | 12.58103 | 10846 ft | 319 kts | 199° |
| 2026-04-25 16:46 | 56.17293 | 12.57544 | 10775 ft | 311 kts | 201° |
| 2026-04-25 16:46 | 56.15312 | 12.56317 | 10639 ft | 296 kts | 211° |
| 2026-04-25 16:46 | 56.13393 | 12.54926 | 10523 ft | 298 kts | 210° |
| 2026-04-25 16:46 | 56.12109 | 12.54023 | 10417 ft | 298 kts | 209° |
| 2026-04-25 16:47 | 56.09544 | 12.52254 | 10201 ft | 297 kts | 208° |
| 2026-04-25 16:47 | 56.07636 | 12.50959 | 10023 ft | 291 kts | 208° |
| 2026-04-25 16:47 | 56.05763 | 12.49696 | 9851 ft | 284 kts | 208° |
| 2026-04-25 16:47 | 56.03919 | 12.48458 | 9686 ft | 283 kts | 208° |
| 2026-04-25 16:48 | 56.02067 | 12.47218 | 9510 ft | 283 kts | 208° |
| 2026-04-25 16:48 | 56.00218 | 12.45983 | 9340 ft | 282 kts | 208° |
| 2026-04-25 16:48 | 55.98388 | 12.44762 | 9175 ft | 282 kts | 208° |
| 2026-04-25 16:48 | 55.96552 | 12.43537 | 9009 ft | 282 kts | 208° |
| 2026-04-25 16:49 | 55.94716 | 12.42311 | 8821 ft | 281 kts | 209° |
| 2026-04-25 16:49 | 55.92883 | 12.41071 | 8647 ft | 282 kts | 210° |
| 2026-04-25 16:49 | 55.91066 | 12.39845 | 8501 ft | 283 kts | 210° |
| 2026-04-25 16:49 | 55.89226 | 12.38603 | 8360 ft | 282 kts | 209° |
| 2026-04-25 16:50 | 55.87386 | 12.37373 | 8194 ft | 282 kts | 207° |
| 2026-04-25 16:50 | 55.85405 | 12.36893 | 7980 ft | 296 kts | 180° |
| 2026-04-25 16:50 | 55.83431 | 12.38027 | 7798 ft | 305 kts | 150° |
| 2026-04-25 16:50 | 55.81892 | 12.40596 | 7640 ft | 304 kts | 123° |
| 2026-04-25 16:51 | 55.80764 | 12.43724 | 7515 ft | 304 kts | 120° |
| 2026-04-25 16:51 | 55.79616 | 12.46898 | 7345 ft | 303 kts | 121° |
| 2026-04-25 16:51 | 55.78469 | 12.50046 | 7150 ft | 303 kts | 121° |
| 2026-04-25 16:51 | 55.77711 | 12.52120 | 7045 ft | 302 kts | 121° |
| 2026-04-25 16:52 | 55.76174 | 12.56311 | 6881 ft | 301 kts | 121° |
| 2026-04-25 16:52 | 55.75035 | 12.59414 | 6723 ft | 300 kts | 121° |
| 2026-04-25 16:52 | 55.73894 | 12.62518 | 6566 ft | 299 kts | 121° |
| 2026-04-25 16:52 | 55.72770 | 12.65572 | 6390 ft | 298 kts | 121° |
| 2026-04-25 16:53 | 55.70505 | 12.71714 | 6026 ft | 296 kts | 122° |
| 2026-04-25 16:53 | 55.69374 | 12.74775 | 5855 ft | 296 kts | 122° |
| 2026-04-25 16:53 | 55.68248 | 12.77822 | 5669 ft | 294 kts | 122° |
| 2026-04-25 16:54 | 55.67154 | 12.80782 | 5575 ft | 284 kts | 122° |
| 2026-04-25 16:54 | 55.66076 | 12.83694 | 5542 ft | 274 kts | 122° |
| 2026-04-25 16:54 | 55.65026 | 12.86526 | 5468 ft | 285 kts | 122° |
| 2026-04-25 16:54 | 55.63943 | 12.89446 | 5266 ft | 282 kts | 122° |
| 2026-04-25 16:55 | 55.62864 | 12.92327 | 5001 ft | 280 kts | 123° |
| 2026-04-25 16:55 | 55.61770 | 12.95164 | 4667 ft | 277 kts | 122° |
| 2026-04-25 16:55 | 55.60701 | 12.97940 | 4380 ft | 271 kts | 122° |
| 2026-04-25 16:55 | 55.59657 | 13.00654 | 4201 ft | 261 kts | 122° |
| 2026-04-25 16:56 | 55.58643 | 13.03287 | 4092 ft | 258 kts | 122° |
| 2026-04-25 16:56 | 55.57636 | 13.05902 | 3997 ft | 258 kts | 122° |
| 2026-04-25 16:56 | 55.56625 | 13.08532 | 3818 ft | 257 kts | 122° |
| 2026-04-25 16:56 | 55.55642 | 13.11084 | 3550 ft | 256 kts | 124° |
| 2026-04-25 16:57 | 55.54345 | 13.13207 | 3224 ft | 253 kts | 156° |
| 2026-04-25 16:57 | 55.53266 | 13.13866 | 3022 ft | 245 kts | 179° |
| 2026-04-25 16:57 | 55.51232 | 13.13132 | 2867 ft | 211 kts | 227° |
| 2026-04-25 16:57 | 55.50391 | 13.11238 | 2914 ft | 189 kts | 262° |
| 2026-04-25 16:58 | 55.50211 | 13.09015 | 2972 ft | 186 kts | 274° |
| 2026-04-25 16:58 | 55.50171 | 13.06718 | 2966 ft | 188 kts | 275° |
| 2026-04-25 16:58 | 55.50129 | 13.04417 | 2969 ft | 185 kts | 275° |
| 2026-04-25 16:58 | 55.50074 | 13.02185 | 2997 ft | 178 kts | 275° |
| 2026-04-25 16:59 | 55.50019 | 13.00003 | 2978 ft | 177 kts | 275° |
| 2026-04-25 16:59 | 55.50091 | 12.97871 | 2941 ft | 169 kts | 294° |
| 2026-04-25 16:59 | 55.50604 | 12.96056 | 2983 ft | 168 kts | 302° |
| 2026-04-25 16:59 | 55.51201 | 12.94272 | 3004 ft | 168 kts | 303° |
| 2026-04-25 17:00 | 55.51820 | 12.92526 | 2986 ft | 168 kts | 304° |
| 2026-04-25 17:00 | 55.52452 | 12.90784 | 2973 ft | 168 kts | 305° |
| 2026-04-25 17:00 | 55.53082 | 12.89078 | 2918 ft | 169 kts | 305° |
| 2026-04-25 17:00 | 55.53724 | 12.87346 | 2707 ft | 167 kts | 305° |
| 2026-04-25 17:01 | 55.54346 | 12.85670 | 2526 ft | 159 kts | 305° |
| 2026-04-25 17:01 | 55.54939 | 12.84072 | 2343 ft | 152 kts | 305° |
| 2026-04-25 17:01 | 55.55509 | 12.82533 | 2148 ft | 147 kts | 305° |
| 2026-04-25 17:01 | 55.56037 | 12.81111 | 1961 ft | 129 kts | 305° |
| 2026-04-25 17:02 | 55.56495 | 12.79877 | 1833 ft | 118 kts | 306° |
| 2026-04-25 17:02 | 55.56946 | 12.78662 | 1659 ft | 118 kts | 305° |
| 2026-04-25 17:02 | 55.57397 | 12.77446 | 1479 ft | 118 kts | 305° |
| 2026-04-25 17:02 | 55.57697 | 12.76638 | 1377 ft | 118 kts | 304° |
| 2026-04-25 17:03 | 55.58302 | 12.75007 | 1140 ft | 119 kts | 305° |
| 2026-04-25 17:03 | 55.58763 | 12.73762 | 990 ft | 122 kts | 305° |
| 2026-04-25 17:03 | 55.59224 | 12.72520 | 812 ft | 122 kts | 305° |
| 2026-04-25 17:03 | 55.59683 | 12.71284 | 662 ft | 120 kts | 304° |
| 2026-04-25 17:04 | 55.60160 | 12.69995 | 506 ft | 130 kts | 303° |
| 2026-04-25 17:04 | 55.60663 | 12.68637 | 312 ft | 132 kts | 304° |
| 2026-04-25 17:04 | 55.61166 | 12.67285 | 133 ft | 130 kts | 303° |
| 2026-04-25 17:04 | 55.61655 | 12.65971 | 24 ft | 119 kts | 303° |
| 2026-04-25 17:05 | 55.62025 | 12.64965 | 21 ft | 72 kts | 303° |
| 2026-04-25 17:05 | 55.62373 | 12.64440 | 20 ft | 12 kts | 19° |
| 2026-04-25 17:05 | 55.62441 | 12.64395 | 19 ft | 12 kts | 306° |
| 2026-04-25 17:06 | 55.62497 | 12.64268 | 19 ft | 14 kts | 305° |
| 2026-04-25 17:06 | 55.62563 | 12.64210 | 19 ft | 12 kts | 36° |
| 2026-04-25 17:06 | 55.62639 | 12.64297 | 19 ft | 14 kts | 24° |
| 2026-04-25 17:06 | 55.62688 | 12.64332 | 21 ft | 2 kts | 22° |
| 2026-04-25 17:07 | 55.62705 | 12.64332 | 19 ft | 3 kts | 333° |
| 2026-04-25 17:07 | 55.62720 | 12.64301 | 19 ft | 4 kts | 304° |
| 2026-04-25 17:07 | 55.62727 | 12.64284 | 19 ft | 0 kts | 303° |